createdAt,value
2019-03-10T00:02:11.782Z,97007.00
2019-03-10T00:04:42.971Z,96999.00
2019-03-10T00:07:14.261Z,97007.00
2019-03-10T00:09:45.493Z,97002.00
2019-03-10T00:12:16.689Z,96997.00
2019-03-10T00:14:48.300Z,96998.00
2019-03-10T00:17:19.665Z,96989.00
2019-03-10T00:19:50.904Z,96978.00
2019-03-10T00:22:22.796Z,96982.00
2019-03-10T00:24:54.052Z,96969.00
2019-03-10T00:27:25.316Z,96969.00
2019-03-10T00:29:56.944Z,96959.00
2019-03-10T00:32:28.491Z,96965.00
2019-03-10T00:35:00.416Z,96963.00
2019-03-10T00:37:32.025Z,96969.00
2019-03-10T00:40:58.043Z,96962.00
2019-03-10T00:44:37.698Z,96959.00
2019-03-10T00:48:04.494Z,96966.00
2019-03-10T00:51:19.262Z,96985.00
2019-03-10T00:53:50.358Z,96968.00
2019-03-10T00:56:21.614Z,96973.00
2019-03-10T00:58:52.831Z,96961.00
2019-03-10T01:01:23.987Z,96954.00
2019-03-10T01:03:55.121Z,96942.00
2019-03-10T01:06:27.391Z,96923.00
2019-03-10T01:08:58.632Z,96918.00
2019-03-10T01:11:29.791Z,96938.00
2019-03-10T01:14:00.970Z,96922.00
2019-03-10T01:16:34.137Z,96925.00
2019-03-10T01:19:06.045Z,96932.00
2019-03-10T01:21:39.439Z,96940.00
2019-03-10T01:24:11.327Z,96940.00
2019-03-10T01:26:43.647Z,96936.00
2019-03-10T01:29:15.098Z,96935.00
2019-03-10T01:32:41.139Z,96927.00
2019-03-10T01:35:29.274Z,96923.00
2019-03-10T01:38:00.865Z,96923.00
2019-03-10T01:40:32.422Z,96931.00
2019-03-10T01:43:03.978Z,96937.00
2019-03-10T01:45:35.127Z,96918.00
2019-03-10T01:48:06.378Z,96919.00
2019-03-10T01:50:37.600Z,96924.00
2019-03-10T01:53:08.786Z,96914.00
2019-03-10T01:55:40.414Z,96909.00
2019-03-10T01:58:11.585Z,96902.00
2019-03-10T02:00:43.001Z,96892.00
2019-03-10T02:03:14.067Z,96881.00
2019-03-10T02:05:45.077Z,96870.00
2019-03-10T02:08:16.535Z,96870.00
2019-03-10T02:10:47.812Z,96870.00
2019-03-10T02:13:19.094Z,96867.00
2019-03-10T02:15:50.256Z,96868.00
2019-03-10T02:18:21.694Z,96871.00
2019-03-10T02:20:52.853Z,96872.00
2019-03-10T02:23:23.964Z,96873.00
2019-03-10T02:25:55.113Z,96883.00
2019-03-10T02:28:26.341Z,96879.00
2019-03-10T02:30:58.672Z,96870.00
2019-03-10T02:33:29.863Z,96867.00
2019-03-10T02:36:00.904Z,96871.00
2019-03-10T02:38:32.106Z,96871.00
2019-03-10T02:41:03.166Z,96868.00
2019-03-10T02:43:34.377Z,96869.00
2019-03-10T02:46:05.539Z,96855.00
2019-03-10T02:48:36.595Z,96841.00
2019-03-10T02:51:08.207Z,96843.00
2019-03-10T02:53:39.693Z,96843.00
2019-03-10T02:56:10.848Z,96851.00
2019-03-10T02:58:42.208Z,96834.00
2019-03-10T03:01:13.471Z,96837.00
2019-03-10T03:03:44.563Z,96817.00
2019-03-10T03:06:16.097Z,96828.00
2019-03-10T03:08:47.205Z,96826.00
2019-03-10T03:11:18.371Z,96818.00
2019-03-10T03:13:49.652Z,96815.00
2019-03-10T03:16:20.828Z,96815.00
2019-03-10T03:18:51.902Z,96805.00
2019-03-10T03:21:23.085Z,96806.00
2019-03-10T03:23:54.365Z,96809.00
2019-03-10T03:26:25.517Z,96793.00
2019-03-10T03:28:56.751Z,96795.00
2019-03-10T03:31:28.270Z,96796.00
2019-03-10T03:33:59.437Z,96778.00
2019-03-10T03:36:36.667Z,96779.00
2019-03-10T03:39:46.728Z,96784.00
2019-03-10T03:42:17.941Z,96770.00
2019-03-10T03:44:49.123Z,96763.00
2019-03-10T03:47:20.340Z,96746.00
2019-03-10T03:49:52.235Z,96742.00
2019-03-10T03:52:23.375Z,96739.00
2019-03-10T03:54:54.623Z,96743.00
2019-03-10T03:57:25.684Z,96742.00
2019-03-10T03:59:56.943Z,96736.00
2019-03-10T04:02:45.505Z,96726.00
2019-03-10T04:05:16.702Z,96729.00
2019-03-10T04:07:47.871Z,96731.00
2019-03-10T04:10:19.471Z,96719.00
2019-03-10T04:12:50.790Z,96716.00
2019-03-10T04:15:22.050Z,96705.00
2019-03-10T04:17:53.224Z,96702.00
2019-03-10T04:20:24.354Z,96695.00
2019-03-10T04:22:55.509Z,96688.00
2019-03-10T04:25:26.696Z,96696.00
2019-03-10T04:27:57.847Z,96696.00
2019-03-10T04:30:30.884Z,96699.00
2019-03-10T04:33:02.227Z,96674.00
2019-03-10T04:35:33.502Z,96660.00
2019-03-10T04:38:04.705Z,96667.00
2019-03-10T04:40:35.884Z,96667.00
2019-03-10T04:43:07.154Z,96664.00
2019-03-10T04:45:38.422Z,96656.00
2019-03-10T04:48:09.433Z,96662.00
2019-03-10T04:50:40.686Z,96658.00
2019-03-10T04:53:11.810Z,96664.00
2019-03-10T04:55:54.288Z,96658.00
2019-03-10T04:58:25.691Z,96660.00
2019-03-10T05:00:58.021Z,96643.00
2019-03-10T05:03:29.174Z,96644.00
2019-03-10T05:06:00.911Z,96660.00
2019-03-10T05:08:31.999Z,96663.00
2019-03-10T05:11:03.159Z,96650.00
2019-03-10T05:13:34.418Z,96645.00
2019-03-10T05:16:05.684Z,96636.00
2019-03-10T05:18:36.707Z,96629.00
2019-03-10T05:21:08.487Z,96627.00
2019-03-10T05:23:44.337Z,96620.00
2019-03-10T05:26:17.230Z,96622.00
2019-03-10T05:28:49.300Z,96620.00
2019-03-10T05:31:20.893Z,96616.00
2019-03-10T05:33:52.025Z,96602.00
2019-03-10T05:36:23.300Z,96600.00
2019-03-10T05:38:55.487Z,96600.00
2019-03-10T05:41:27.061Z,96588.00
2019-03-10T05:43:58.934Z,96570.00
2019-03-10T05:46:30.056Z,96571.00
2019-03-10T05:49:01.498Z,96564.00
2019-03-10T05:51:33.071Z,96560.00
2019-03-10T05:54:04.295Z,96558.00
2019-03-10T05:56:35.459Z,96550.00
2019-03-10T05:59:06.604Z,96531.00
2019-03-10T06:01:38.827Z,96534.00
2019-03-10T06:04:09.937Z,96531.00
2019-03-10T06:06:41.450Z,96526.00
2019-03-10T06:09:12.459Z,96505.00
2019-03-10T06:11:43.646Z,96493.00
2019-03-10T06:14:14.817Z,96491.00
2019-03-10T06:16:45.946Z,96472.00
2019-03-10T06:19:17.019Z,96462.00
2019-03-10T06:21:48.134Z,96461.00
2019-03-10T06:24:19.216Z,96453.00
2019-03-10T06:26:50.277Z,96434.00
2019-03-10T06:29:21.280Z,96429.00
2019-03-10T06:31:52.677Z,96434.00
2019-03-10T06:34:24.734Z,96440.00
2019-03-10T06:36:55.879Z,96437.00
2019-03-10T06:39:26.949Z,96425.00
2019-03-10T06:41:58.143Z,96432.00
2019-03-10T06:44:29.152Z,96433.00
2019-03-10T06:47:00.703Z,96431.00
2019-03-10T06:49:31.851Z,96423.00
2019-03-10T06:52:03.147Z,96431.00
2019-03-10T06:54:34.239Z,96435.00
2019-03-10T06:57:05.489Z,96427.00
2019-03-10T06:59:36.782Z,96438.00
2019-03-10T07:02:08.538Z,96435.00
2019-03-10T07:04:39.886Z,96434.00
2019-03-10T07:07:11.442Z,96426.00
2019-03-10T07:09:42.553Z,96433.00
2019-03-10T07:12:13.843Z,96428.00
2019-03-10T07:14:44.871Z,96426.00
2019-03-10T07:17:16.419Z,96430.00
2019-03-10T07:19:47.871Z,96431.00
2019-03-10T07:22:18.971Z,96428.00
2019-03-10T07:24:51.030Z,96425.00
2019-03-10T07:27:23.518Z,96415.00
2019-03-10T07:30:04.762Z,96408.00
2019-03-10T07:32:44.637Z,96420.00
2019-03-10T07:35:27.390Z,96392.00
2019-03-10T07:38:11.589Z,96382.00
2019-03-10T07:41:00.598Z,96379.00
2019-03-10T07:43:36.647Z,96379.00
2019-03-10T07:46:39.138Z,96373.00
2019-03-10T07:49:38.167Z,96368.00
2019-03-10T07:52:20.515Z,96357.00
2019-03-10T07:55:08.763Z,96346.00
2019-03-10T07:57:58.158Z,96347.00
2019-03-10T08:00:40.887Z,96336.00
2019-03-10T08:03:34.236Z,96330.00
2019-03-10T08:06:15.068Z,96316.00
2019-03-10T08:09:03.669Z,96310.00
2019-03-10T08:11:58.608Z,96304.00
2019-03-10T08:14:44.803Z,96291.00
2019-03-10T08:17:25.365Z,96281.00
2019-03-10T08:20:02.311Z,96276.00
2019-03-10T08:22:46.542Z,96271.00
2019-03-10T08:25:36.261Z,96259.00
2019-03-10T08:28:44.155Z,96252.00
2019-03-10T08:31:36.367Z,96237.00
2019-03-10T08:34:25.425Z,96232.00
2019-03-10T08:37:04.918Z,96228.00
2019-03-10T08:40:04.300Z,96220.00
2019-03-10T08:42:44.594Z,96217.00
2019-03-10T08:45:34.909Z,96188.00
2019-03-10T08:48:37.260Z,96182.00
2019-03-10T08:51:27.711Z,96166.00
2019-03-10T08:54:03.903Z,96166.00
2019-03-10T08:56:52.858Z,96152.00
2019-03-10T08:59:35.781Z,96142.00
2019-03-10T09:02:15.571Z,96146.00
2019-03-10T09:05:08.694Z,96122.00
2019-03-10T09:07:58.879Z,96116.00
2019-03-10T09:10:48.911Z,96117.00
2019-03-10T09:13:26.647Z,96109.00
2019-03-10T09:16:13.672Z,96109.00
2019-03-10T09:19:04.115Z,96098.00
2019-03-10T09:21:51.245Z,96098.00
2019-03-10T09:24:47.218Z,96091.00
2019-03-10T09:27:36.629Z,96075.00
2019-03-10T09:30:30.501Z,96066.00
2019-03-10T09:33:07.547Z,96052.00
2019-03-10T09:35:56.671Z,96032.00
2019-03-10T09:38:33.673Z,96031.00
2019-03-10T09:41:23.754Z,96009.00
2019-03-10T09:44:23.182Z,96008.00
2019-03-10T09:47:17.843Z,96015.00
2019-03-10T09:50:24.573Z,95963.00
2019-03-10T09:53:17.514Z,95977.00
2019-03-10T09:56:07.781Z,95957.00
2019-03-10T09:58:54.899Z,95959.00
2019-03-10T10:01:37.269Z,95962.00
2019-03-10T10:04:25.206Z,95952.00
2019-03-10T10:07:10.077Z,95957.00
2019-03-10T10:10:00.527Z,95955.00
2019-03-10T10:12:48.314Z,95943.00
2019-03-10T10:15:47.953Z,95922.00
2019-03-10T10:18:35.582Z,95919.00
2019-03-10T10:21:29.229Z,95912.00
2019-03-10T10:24:12.796Z,95899.00
2019-03-10T10:26:52.501Z,95899.00
2019-03-10T10:29:33.459Z,95898.00
2019-03-10T10:32:19.162Z,95882.00
2019-03-10T10:35:04.173Z,95874.00
2019-03-10T10:37:49.824Z,95868.00
2019-03-10T10:40:46.087Z,95872.00
2019-03-10T10:43:49.000Z,95864.00
2019-03-10T10:46:37.685Z,95860.00
2019-03-10T10:49:21.727Z,95850.00
2019-03-10T10:52:11.849Z,95856.00
2019-03-10T10:54:50.669Z,95851.00
2019-03-10T10:57:38.573Z,95836.00
2019-03-10T11:00:32.183Z,95820.00
2019-03-10T11:03:12.439Z,95820.00
2019-03-10T11:06:01.643Z,95834.00
2019-03-10T11:08:46.254Z,95828.00
2019-03-10T11:11:51.926Z,95827.00
2019-03-10T11:14:36.871Z,95802.00
2019-03-10T11:17:30.119Z,95803.00
2019-03-10T11:20:11.286Z,95790.00
2019-03-10T11:22:50.648Z,95795.00
2019-03-10T11:25:27.633Z,95783.00
2019-03-10T11:28:06.873Z,95786.00
2019-03-10T11:30:46.002Z,95782.00
2019-03-10T11:33:45.551Z,95775.00
2019-03-10T11:36:33.332Z,95772.00
2019-03-10T11:39:26.323Z,95761.00
2019-03-10T11:42:09.172Z,95773.00
2019-03-10T11:45:11.392Z,95749.00
2019-03-10T11:48:01.777Z,95755.00
2019-03-10T11:50:49.196Z,95750.00
2019-03-10T11:53:31.567Z,95759.00
2019-03-10T11:56:11.058Z,95737.00
2019-03-10T11:58:49.468Z,95718.00
2019-03-10T12:01:35.026Z,95752.00
2019-03-10T12:04:15.229Z,95754.00
2019-03-10T12:06:59.587Z,95731.00
2019-03-10T12:09:30.835Z,95723.00
2019-03-10T12:12:02.093Z,95699.00
2019-03-10T12:14:33.729Z,95703.00
2019-03-10T12:17:04.888Z,95726.00
2019-03-10T12:19:37.350Z,95733.00
2019-03-10T12:22:08.548Z,95721.00
2019-03-10T12:24:39.736Z,95716.00
2019-03-10T12:27:11.194Z,95679.00
2019-03-10T12:29:42.640Z,95728.00
2019-03-10T12:32:13.723Z,95676.00
2019-03-10T12:34:45.002Z,95728.00
2019-03-10T12:37:16.087Z,95681.00
2019-03-10T12:39:47.216Z,95557.00
2019-03-10T12:42:18.213Z,95620.00
2019-03-10T12:44:49.411Z,95640.00
2019-03-10T12:47:20.567Z,95635.00
2019-03-10T12:49:51.610Z,95609.00
2019-03-10T12:52:22.796Z,95621.00
2019-03-10T12:54:53.980Z,95605.00
2019-03-10T12:57:27.168Z,95606.00
2019-03-10T12:59:58.281Z,95613.00
2019-03-10T13:02:30.678Z,95610.00
2019-03-10T13:05:01.869Z,95608.00
2019-03-10T13:07:33.364Z,95614.00
2019-03-10T13:10:04.578Z,95603.00
2019-03-10T13:12:35.728Z,95594.00
2019-03-10T13:15:09.679Z,95602.00
2019-03-10T13:17:40.928Z,95617.00
2019-03-10T13:20:12.150Z,95623.00
2019-03-10T13:22:43.288Z,95611.00
2019-03-10T13:25:14.915Z,95626.00
2019-03-10T13:27:47.148Z,95613.00
2019-03-10T13:30:18.420Z,95591.00
2019-03-10T13:32:50.936Z,95572.00
2019-03-10T13:35:22.312Z,95572.00
2019-03-10T13:37:53.477Z,95574.00
2019-03-10T13:40:25.387Z,95597.00
2019-03-10T13:42:56.595Z,95593.00
2019-03-10T13:45:28.290Z,95590.00
2019-03-10T13:47:59.885Z,95596.00
2019-03-10T13:50:31.058Z,95574.00
2019-03-10T13:53:02.536Z,95576.00
2019-03-10T13:55:33.822Z,95567.00
2019-03-10T13:58:04.968Z,95556.00
2019-03-10T14:00:36.175Z,95568.00
2019-03-10T14:03:07.422Z,95540.00
2019-03-10T14:05:38.867Z,95552.00
2019-03-10T14:08:10.125Z,95562.00
2019-03-10T14:10:41.659Z,95547.00
2019-03-10T14:13:12.891Z,95546.00
2019-03-10T14:15:44.659Z,95537.00
2019-03-10T14:18:15.835Z,95533.00
2019-03-10T14:20:47.500Z,95535.00
2019-03-10T14:23:18.660Z,95512.00
2019-03-10T14:25:50.132Z,95516.00
2019-03-10T14:28:22.227Z,95519.00
2019-03-10T14:30:53.728Z,95523.00
2019-03-10T14:33:24.991Z,95518.00
2019-03-10T14:35:56.572Z,95525.00
2019-03-10T14:38:27.817Z,95524.00
2019-03-10T14:40:59.375Z,95527.00
2019-03-10T14:43:30.469Z,95514.00
2019-03-10T14:46:02.048Z,95495.00
2019-03-10T14:48:34.833Z,95514.00
2019-03-10T14:51:06.093Z,95506.00
2019-03-10T14:53:37.235Z,95532.00
2019-03-10T14:56:08.787Z,95529.00
2019-03-10T14:58:40.027Z,95531.00
2019-03-10T15:01:11.276Z,95564.00
2019-03-10T15:03:42.461Z,95537.00
2019-03-10T15:06:14.624Z,95555.00
2019-03-10T15:08:46.548Z,95556.00
2019-03-10T15:11:17.916Z,95543.00
2019-03-10T15:13:49.063Z,95543.00
2019-03-10T15:16:21.473Z,95546.00
2019-03-10T15:18:52.640Z,95568.00
2019-03-10T15:21:24.072Z,95555.00
2019-03-10T15:23:55.238Z,95562.00
2019-03-10T15:26:26.808Z,95572.00
2019-03-10T15:28:57.968Z,95551.00
2019-03-10T15:31:29.155Z,95552.00
2019-03-10T15:34:00.475Z,95596.00
2019-03-10T15:36:32.188Z,95545.00
2019-03-10T15:39:03.828Z,95550.00
2019-03-10T15:41:36.742Z,95547.00
2019-03-10T15:44:08.000Z,95553.00
2019-03-10T15:46:39.172Z,95562.00
2019-03-10T15:49:10.338Z,95547.00
2019-03-10T15:51:41.459Z,95562.00
2019-03-10T15:54:12.636Z,95571.00
2019-03-10T15:56:43.852Z,95561.00
2019-03-10T15:59:15.008Z,95570.00
2019-03-10T16:01:46.210Z,95577.00
2019-03-10T16:04:22.783Z,95556.00
2019-03-10T16:06:54.922Z,95549.00
2019-03-10T16:09:26.083Z,95536.00
2019-03-10T16:11:57.360Z,95563.00
2019-03-10T16:14:28.658Z,95552.00
2019-03-10T16:17:00.046Z,95596.00
2019-03-10T16:19:31.560Z,95580.00
2019-03-10T16:22:02.678Z,95594.00
2019-03-10T16:24:33.851Z,95593.00
2019-03-10T16:27:05.041Z,95602.00
2019-03-10T16:29:36.230Z,95613.00
2019-03-10T16:32:08.908Z,95611.00
2019-03-10T16:34:40.068Z,95637.00
2019-03-10T16:37:11.186Z,95655.00
2019-03-10T16:39:42.757Z,95634.00
2019-03-10T16:42:14.492Z,95662.00
2019-03-10T16:44:45.660Z,95652.00
2019-03-10T16:47:16.992Z,95660.00
2019-03-10T16:49:48.071Z,95687.00
2019-03-10T16:52:19.321Z,95706.00
2019-03-10T16:54:50.727Z,95677.00
2019-03-10T16:57:22.069Z,95673.00
2019-03-10T16:59:53.127Z,95668.00
2019-03-10T17:02:24.130Z,95668.00
2019-03-10T17:04:55.400Z,95701.00
2019-03-10T17:07:26.749Z,95709.00
2019-03-10T17:09:57.910Z,95704.00
2019-03-10T17:12:29.449Z,95721.00
2019-03-10T17:15:00.666Z,95711.00
2019-03-10T17:17:31.878Z,95721.00
2019-03-10T17:20:03.009Z,95732.00
2019-03-10T17:22:35.194Z,95727.00
2019-03-10T17:25:07.109Z,95706.00
2019-03-10T17:27:38.297Z,95726.00
2019-03-10T17:30:14.841Z,95726.00
2019-03-10T17:32:46.413Z,95735.00
2019-03-10T17:35:18.227Z,95746.00
2019-03-10T17:37:49.950Z,95758.00
2019-03-10T17:40:21.288Z,95746.00
2019-03-10T17:42:53.236Z,95773.00
2019-03-10T17:45:24.702Z,95763.00
2019-03-10T17:47:57.347Z,95800.00
2019-03-10T17:50:28.599Z,95803.00
2019-03-10T17:52:59.873Z,95819.00
2019-03-10T17:55:31.044Z,95839.00
2019-03-10T17:58:02.937Z,95843.00
2019-03-10T18:00:34.955Z,95848.00
2019-03-10T18:03:06.649Z,95842.00
2019-03-10T18:05:38.295Z,95878.00
2019-03-10T18:08:09.604Z,95865.00
2019-03-10T18:10:41.108Z,95906.00
2019-03-10T18:13:12.744Z,95893.00
2019-03-10T18:15:44.610Z,95918.00
2019-03-10T18:18:15.984Z,95912.00
2019-03-10T18:20:47.400Z,95925.00
2019-03-10T18:23:18.688Z,95916.00
2019-03-10T18:25:49.877Z,95916.00
2019-03-10T18:28:21.309Z,95927.00
2019-03-10T18:30:52.794Z,95938.00
2019-03-10T18:33:24.336Z,95947.00
2019-03-10T18:35:55.409Z,95920.00
2019-03-10T18:38:26.742Z,95983.00
2019-03-10T18:40:57.971Z,95964.00
2019-03-10T18:43:29.234Z,95935.00
2019-03-10T18:46:00.867Z,95939.00
2019-03-10T18:48:34.199Z,95990.00
2019-03-10T18:51:05.726Z,95963.00
2019-03-10T18:53:37.389Z,96033.00
2019-03-10T18:56:09.209Z,95992.00
2019-03-10T18:58:40.521Z,96012.00
2019-03-10T19:01:11.673Z,96012.00
2019-03-10T19:03:42.958Z,95987.00
2019-03-10T19:06:14.214Z,95998.00
2019-03-10T19:08:45.434Z,96033.00
2019-03-10T19:11:16.565Z,96021.00
2019-03-10T19:13:47.756Z,96050.00
2019-03-10T19:16:20.403Z,96014.00
2019-03-10T19:18:51.524Z,96016.00
2019-03-10T19:21:22.834Z,96059.00
2019-03-10T19:23:53.875Z,96084.00
2019-03-10T19:26:25.043Z,96051.00
2019-03-10T19:28:56.183Z,96054.00
2019-03-10T19:31:27.251Z,96062.00
2019-03-10T19:33:58.522Z,96071.00
2019-03-10T19:36:29.767Z,96060.00
2019-03-10T19:39:02.014Z,96074.00
2019-03-10T19:41:34.847Z,96095.00
2019-03-10T19:44:06.102Z,96077.00
2019-03-10T19:46:38.500Z,96088.00
2019-03-10T19:49:09.617Z,96103.00
2019-03-10T19:51:40.822Z,96094.00
2019-03-10T19:54:12.266Z,96116.00
2019-03-10T19:56:43.424Z,96115.00
2019-03-10T19:59:14.674Z,96133.00
2019-03-10T20:01:46.088Z,96126.00
2019-03-10T20:04:18.869Z,96152.00
2019-03-10T20:06:49.933Z,96128.00
2019-03-10T20:09:21.119Z,96133.00
2019-03-10T20:11:52.523Z,96134.00
2019-03-10T20:14:23.721Z,96148.00
2019-03-10T20:16:54.884Z,96149.00
2019-03-10T20:19:26.464Z,96185.00
2019-03-10T20:21:57.531Z,96194.00
2019-03-10T20:24:28.789Z,96261.00
2019-03-10T20:26:59.983Z,96294.00
2019-03-10T20:29:31.527Z,96316.00
2019-03-10T20:32:13.157Z,96337.00
2019-03-10T20:34:35.708Z,96345.00
2019-03-10T20:37:06.862Z,96353.00
2019-03-10T20:39:37.916Z,96365.00
2019-03-10T20:42:09.027Z,96369.00
2019-03-10T20:44:40.207Z,96381.00
2019-03-10T20:47:11.370Z,96390.00
2019-03-10T20:49:42.391Z,96403.00
2019-03-10T20:52:13.905Z,96421.00
2019-03-10T20:54:45.006Z,96414.00
2019-03-10T20:57:16.094Z,96442.00
2019-03-10T20:59:47.224Z,96447.00
2019-03-10T21:02:18.384Z,96467.00
2019-03-10T21:04:49.428Z,96490.00
2019-03-10T21:07:20.557Z,96487.00
2019-03-10T21:09:51.673Z,96488.00
2019-03-10T21:12:23.103Z,96499.00
2019-03-10T21:14:54.799Z,96502.00
2019-03-10T21:17:26.320Z,96509.00
2019-03-10T21:19:57.507Z,96510.00
2019-03-10T21:22:28.519Z,96525.00
2019-03-10T21:24:59.630Z,96533.00
2019-03-10T21:27:30.901Z,96528.00
2019-03-10T21:30:02.015Z,96544.00
2019-03-10T21:32:33.377Z,96563.00
2019-03-10T21:35:04.963Z,96570.00
2019-03-10T21:37:36.185Z,96581.00
2019-03-10T21:40:09.502Z,96577.00
2019-03-10T21:42:40.905Z,96584.00
2019-03-10T21:45:12.644Z,96592.00
2019-03-10T21:47:43.949Z,96610.00
2019-03-10T21:50:15.594Z,96594.00
2019-03-10T21:52:47.019Z,96587.00
2019-03-10T21:55:18.329Z,96607.00
2019-03-10T21:57:50.950Z,96602.00
2019-03-10T22:00:22.741Z,96620.00
2019-03-10T22:02:53.892Z,96628.00
2019-03-10T22:05:25.158Z,96629.00
2019-03-10T22:07:56.317Z,96641.00
2019-03-10T22:10:28.169Z,96638.00
2019-03-10T22:13:01.013Z,96657.00
2019-03-10T22:15:41.078Z,96654.00
2019-03-10T22:18:06.318Z,96653.00
2019-03-10T22:20:37.585Z,96660.00
2019-03-10T22:23:09.173Z,96675.00
2019-03-10T22:25:40.210Z,96664.00
2019-03-10T22:28:11.382Z,96665.00
2019-03-10T22:30:42.501Z,96679.00
2019-03-10T22:33:13.638Z,96679.00
2019-03-10T22:35:44.839Z,96688.00
2019-03-10T22:38:15.933Z,96690.00
2019-03-10T22:40:47.108Z,96691.00
2019-03-10T22:43:18.293Z,96691.00
2019-03-10T22:45:49.875Z,96701.00
2019-03-10T22:48:20.877Z,96710.00
2019-03-10T22:50:52.080Z,96714.00
2019-03-10T22:53:23.942Z,96730.00
2019-03-10T22:55:55.109Z,96732.00
2019-03-10T22:58:26.212Z,96740.00
2019-03-10T23:00:58.958Z,96748.00
2019-03-10T23:03:30.383Z,96744.00
2019-03-10T23:06:01.420Z,96739.00
2019-03-10T23:08:32.596Z,96744.00
2019-03-10T23:11:03.706Z,96748.00
2019-03-10T23:13:34.836Z,96760.00
2019-03-10T23:16:07.184Z,96762.00
2019-03-10T23:18:38.383Z,96771.00
2019-03-10T23:21:09.645Z,96780.00
2019-03-10T23:23:40.898Z,96775.00
2019-03-10T23:26:12.471Z,96785.00
2019-03-10T23:28:43.955Z,96797.00
2019-03-10T23:31:14.982Z,96794.00
2019-03-10T23:33:47.133Z,96818.00
2019-03-10T23:36:18.317Z,96813.00
2019-03-10T23:38:49.681Z,96810.00
2019-03-10T23:41:21.786Z,96819.00
2019-03-10T23:43:52.885Z,96817.00
2019-03-10T23:46:24.300Z,96832.00
2019-03-10T23:48:55.639Z,96820.00
2019-03-10T23:51:26.817Z,96820.00
2019-03-10T23:53:58.330Z,96816.00
2019-03-10T23:56:29.363Z,96819.00
2019-03-10T23:59:00.654Z,96820.00
